sensor_id;sensor_type;location;lat;lon;timestamp;P1;durP1;ratioP1;P2;durP2;ratioP2
9160;SDS011;4615;51.340;8.288;2023-02-01T00:00:46;15.98;;;6.32;;
9160;SDS011;4615;51.340;8.288;2023-02-01T00:03:13;16.57;;;6.80;;
9160;SDS011;4615;51.340;8.288;2023-02-01T00:05:41;13.43;;;5.88;;
9160;SDS011;4615;51.340;8.288;2023-02-01T00:08:08;16.13;;;6.30;;
9160;SDS011;4615;51.340;8.288;2023-02-01T00:10:34;17.60;;;6.68;;
9160;SDS011;4615;51.340;8.288;2023-02-01T00:13:01;16.73;;;6.50;;
9160;SDS011;4615;51.340;8.288;2023-02-01T00:15:27;19.60;;;6.43;;
9160;SDS011;4615;51.340;8.288;2023-02-01T00:17:54;18.02;;;6.20;;
9160;SDS011;4615;51.340;8.288;2023-02-01T00:20:20;16.70;;;6.35;;
9160;SDS011;4615;51.340;8.288;2023-02-01T00:22:48;18.43;;;6.60;;
9160;SDS011;4615;51.340;8.288;2023-02-01T00:25:14;16.83;;;5.90;;
9160;SDS011;4615;51.340;8.288;2023-02-01T00:27:41;16.73;;;6.65;;
9160;SDS011;4615;51.340;8.288;2023-02-01T00:30:08;16.77;;;6.32;;
9160;SDS011;4615;51.340;8.288;2023-02-01T00:32:35;18.73;;;6.43;;
9160;SDS011;4615;51.340;8.288;2023-02-01T00:35:01;17.48;;;6.45;;
9160;SDS011;4615;51.340;8.288;2023-02-01T00:37:27;17.05;;;7.00;;
9160;SDS011;4615;51.340;8.288;2023-02-01T00:39:55;15.27;;;6.57;;
9160;SDS011;4615;51.340;8.288;2023-02-01T00:42:22;19.03;;;7.33;;
9160;SDS011;4615;51.340;8.288;2023-02-01T00:44:48;14.65;;;6.38;;
9160;SDS011;4615;51.340;8.288;2023-02-01T00:47:14;17.02;;;7.00;;
9160;SDS011;4615;51.340;8.288;2023-02-01T00:49:41;19.88;;;7.70;;
9160;SDS011;4615;51.340;8.288;2023-02-01T00:52:07;17.25;;;7.20;;
9160;SDS011;4615;51.340;8.288;2023-02-01T00:54:33;19.52;;;8.43;;
9160;SDS011;4615;51.340;8.288;2023-02-01T00:57:03;20.08;;;7.20;;
9160;SDS011;4615;51.340;8.288;2023-02-01T00:59:29;18.20;;;8.00;;
9160;SDS011;4615;51.340;8.288;2023-02-01T01:01:55;18.27;;;7.90;;
9160;SDS011;4615;51.340;8.288;2023-02-01T01:04:22;23.17;;;8.95;;
9160;SDS011;4615;51.340;8.288;2023-02-01T01:06:48;16.85;;;8.15;;
9160;SDS011;4615;51.340;8.288;2023-02-01T01:09:15;18.60;;;7.85;;
9160;SDS011;4615;51.340;8.288;2023-02-01T01:11:41;20.55;;;8.05;;
9160;SDS011;4615;51.340;8.288;2023-02-01T01:14:09;16.07;;;7.97;;
9160;SDS011;4615;51.340;8.288;2023-02-01T01:16:36;18.08;;;7.60;;
9160;SDS011;4615;51.340;8.288;2023-02-01T01:19:02;17.65;;;8.00;;
9160;SDS011;4615;51.340;8.288;2023-02-01T01:21:29;17.42;;;7.95;;
9160;SDS011;4615;51.340;8.288;2023-02-01T01:23:56;19.75;;;7.85;;
9160;SDS011;4615;51.340;8.288;2023-02-01T01:26:23;15.10;;;7.30;;
9160;SDS011;4615;51.340;8.288;2023-02-01T01:28:50;17.52;;;8.40;;
9160;SDS011;4615;51.340;8.288;2023-02-01T01:31:18;15.13;;;7.03;;
9160;SDS011;4615;51.340;8.288;2023-02-01T01:33:47;17.13;;;6.82;;
9160;SDS011;4615;51.340;8.288;2023-02-01T01:36:14;15.98;;;5.97;;
9160;SDS011;4615;51.340;8.288;2023-02-01T01:38:40;17.83;;;6.20;;
9160;SDS011;4615;51.340;8.288;2023-02-01T01:41:07;18.92;;;6.55;;
9160;SDS011;4615;51.340;8.288;2023-02-01T01:43:47;14.60;;;5.50;;
9160;SDS011;4615;51.340;8.288;2023-02-01T01:46:15;17.92;;;6.32;;
9160;SDS011;4615;51.340;8.288;2023-02-01T01:48:43;16.80;;;5.95;;
9160;SDS011;4615;51.340;8.288;2023-02-01T01:51:10;15.67;;;5.63;;
9160;SDS011;4615;51.340;8.288;2023-02-01T01:53:38;15.35;;;5.30;;
9160;SDS011;4615;51.340;8.288;2023-02-01T01:56:08;14.23;;;5.10;;
9160;SDS011;4615;51.340;8.288;2023-02-01T01:58:35;14.10;;;5.50;;
9160;SDS011;4615;51.340;8.288;2023-02-01T02:01:02;14.10;;;4.72;;
9160;SDS011;4615;51.340;8.288;2023-02-01T02:03:30;16.45;;;5.65;;
9160;SDS011;4615;51.340;8.288;2023-02-01T02:06:00;15.25;;;5.30;;
9160;SDS011;4615;51.340;8.288;2023-02-01T02:08:28;17.13;;;5.28;;
9160;SDS011;4615;51.340;8.288;2023-02-01T02:10:54;13.68;;;4.70;;
9160;SDS011;4615;51.340;8.288;2023-02-01T02:13:27;15.27;;;4.88;;
9160;SDS011;4615;51.340;8.288;2023-02-01T02:15:58;16.60;;;5.30;;
9160;SDS011;4615;51.340;8.288;2023-02-01T02:18:27;16.45;;;4.90;;
9160;SDS011;4615;51.340;8.288;2023-02-01T02:21:09;13.93;;;4.90;;
9160;SDS011;4615;51.340;8.288;2023-02-01T02:23:50;15.80;;;4.97;;
9160;SDS011;4615;51.340;8.288;2023-02-01T02:26:28;18.30;;;5.03;;
9160;SDS011;4615;51.340;8.288;2023-02-01T02:32:06;18.88;;;5.35;;
9160;SDS011;4615;51.340;8.288;2023-02-01T02:34:38;11.40;;;4.63;;
9160;SDS011;4615;51.340;8.288;2023-02-01T02:37:08;13.38;;;4.68;;
9160;SDS011;4615;51.340;8.288;2023-02-01T02:39:40;17.00;;;5.32;;
9160;SDS011;4615;51.340;8.288;2023-02-01T02:42:09;15.43;;;4.82;;
9160;SDS011;4615;51.340;8.288;2023-02-01T02:44:56;17.30;;;5.47;;
9160;SDS011;4615;51.340;8.288;2023-02-01T02:47:44;16.88;;;5.35;;
9160;SDS011;4615;51.340;8.288;2023-02-01T02:50:15;16.25;;;5.50;;
9160;SDS011;4615;51.340;8.288;2023-02-01T02:53:13;12.07;;;5.10;;
9160;SDS011;4615;51.340;8.288;2023-02-01T02:55:58;15.85;;;5.25;;
9160;SDS011;4615;51.340;8.288;2023-02-01T02:58:43;13.93;;;4.93;;
9160;SDS011;4615;51.340;8.288;2023-02-01T03:01:28;12.82;;;5.22;;
9160;SDS011;4615;51.340;8.288;2023-02-01T03:04:13;14.02;;;5.43;;
9160;SDS011;4615;51.340;8.288;2023-02-01T03:06:44;15.03;;;5.60;;
9160;SDS011;4615;51.340;8.288;2023-02-01T03:09:12;15.93;;;5.40;;
9160;SDS011;4615;51.340;8.288;2023-02-01T03:11:39;16.25;;;5.70;;
9160;SDS011;4615;51.340;8.288;2023-02-01T03:14:21;17.35;;;5.57;;
9160;SDS011;4615;51.340;8.288;2023-02-01T03:16:49;13.83;;;5.23;;
9160;SDS011;4615;51.340;8.288;2023-02-01T03:19:18;17.38;;;6.00;;
9160;SDS011;4615;51.340;8.288;2023-02-01T03:21:47;13.07;;;5.30;;
9160;SDS011;4615;51.340;8.288;2023-02-01T03:24:16;15.30;;;5.88;;
9160;SDS011;4615;51.340;8.288;2023-02-01T03:26:45;15.02;;;6.10;;
9160;SDS011;4615;51.340;8.288;2023-02-01T03:29:17;15.13;;;5.75;;
9160;SDS011;4615;51.340;8.288;2023-02-01T03:31:44;16.03;;;6.60;;
9160;SDS011;4615;51.340;8.288;2023-02-01T03:34:11;16.60;;;5.78;;
9160;SDS011;4615;51.340;8.288;2023-02-01T03:36:39;15.15;;;5.90;;
9160;SDS011;4615;51.340;8.288;2023-02-01T03:39:09;16.00;;;6.03;;
9160;SDS011;4615;51.340;8.288;2023-02-01T03:41:38;14.63;;;5.93;;
9160;SDS011;4615;51.340;8.288;2023-02-01T03:44:08;17.25;;;6.13;;
9160;SDS011;4615;51.340;8.288;2023-02-01T03:46:37;16.77;;;5.77;;
9160;SDS011;4615;51.340;8.288;2023-02-01T03:49:05;14.52;;;5.47;;
9160;SDS011;4615;51.340;8.288;2023-02-01T03:51:32;16.57;;;5.53;;
9160;SDS011;4615;51.340;8.288;2023-02-01T03:53:59;15.38;;;5.10;;
9160;SDS011;4615;51.340;8.288;2023-02-01T03:56:28;17.98;;;5.72;;
9160;SDS011;4615;51.340;8.288;2023-02-01T03:58:55;14.10;;;5.40;;
9160;SDS011;4615;51.340;8.288;2023-02-01T04:01:25;14.93;;;4.85;;
9160;SDS011;4615;51.340;8.288;2023-02-01T04:03:52;14.33;;;4.90;;
9160;SDS011;4615;51.340;8.288;2023-02-01T04:06:19;15.90;;;5.03;;
9160;SDS011;4615;51.340;8.288;2023-02-01T04:08:45;13.55;;;4.70;;
9160;SDS011;4615;51.340;8.288;2023-02-01T04:11:12;16.42;;;5.47;;
9160;SDS011;4615;51.340;8.288;2023-02-01T04:13:40;14.45;;;4.82;;
9160;SDS011;4615;51.340;8.288;2023-02-01T04:16:06;14.05;;;4.72;;
9160;SDS011;4615;51.340;8.288;2023-02-01T04:18:32;15.70;;;5.00;;
9160;SDS011;4615;51.340;8.288;2023-02-01T04:20:59;16.75;;;4.75;;
9160;SDS011;4615;51.340;8.288;2023-02-01T04:23:26;15.43;;;4.80;;
9160;SDS011;4615;51.340;8.288;2023-02-01T04:25:53;15.82;;;5.15;;
9160;SDS011;4615;51.340;8.288;2023-02-01T04:28:20;12.57;;;4.43;;
9160;SDS011;4615;51.340;8.288;2023-02-01T04:30:48;14.18;;;4.45;;
9160;SDS011;4615;51.340;8.288;2023-02-01T04:33:14;14.93;;;4.63;;
9160;SDS011;4615;51.340;8.288;2023-02-01T04:35:41;12.82;;;4.28;;
9160;SDS011;4615;51.340;8.288;2023-02-01T04:38:07;16.35;;;5.03;;
9160;SDS011;4615;51.340;8.288;2023-02-01T04:40:34;14.65;;;4.40;;
9160;SDS011;4615;51.340;8.288;2023-02-01T04:43:02;14.27;;;4.93;;
9160;SDS011;4615;51.340;8.288;2023-02-01T04:45:29;15.82;;;4.45;;
9160;SDS011;4615;51.340;8.288;2023-02-01T04:47:56;17.17;;;5.05;;
9160;SDS011;4615;51.340;8.288;2023-02-01T04:50:23;14.10;;;4.20;;
9160;SDS011;4615;51.340;8.288;2023-02-01T04:52:49;15.05;;;4.22;;
9160;SDS011;4615;51.340;8.288;2023-02-01T04:55:16;15.30;;;4.30;;
9160;SDS011;4615;51.340;8.288;2023-02-01T04:57:42;15.27;;;3.93;;
9160;SDS011;4615;51.340;8.288;2023-02-01T05:00:09;15.68;;;4.57;;
9160;SDS011;4615;51.340;8.288;2023-02-01T05:02:36;14.52;;;4.43;;
9160;SDS011;4615;51.340;8.288;2023-02-01T05:05:04;12.57;;;4.32;;
9160;SDS011;4615;51.340;8.288;2023-02-01T05:07:31;15.30;;;4.55;;
9160;SDS011;4615;51.340;8.288;2023-02-01T05:09:57;13.50;;;4.20;;
9160;SDS011;4615;51.340;8.288;2023-02-01T05:12:23;12.57;;;4.22;;
9160;SDS011;4615;51.340;8.288;2023-02-01T05:15:08;15.45;;;4.53;;
9160;SDS011;4615;51.340;8.288;2023-02-01T05:17:34;15.95;;;4.45;;
9160;SDS011;4615;51.340;8.288;2023-02-01T05:20:00;16.02;;;4.70;;
9160;SDS011;4615;51.340;8.288;2023-02-01T05:22:28;15.68;;;4.72;;
9160;SDS011;4615;51.340;8.288;2023-02-01T05:24:54;16.40;;;4.38;;
9160;SDS011;4615;51.340;8.288;2023-02-01T05:27:21;14.10;;;4.28;;
9160;SDS011;4615;51.340;8.288;2023-02-01T05:29:47;13.47;;;4.20;;
9160;SDS011;4615;51.340;8.288;2023-02-01T05:32:14;13.07;;;4.50;;
9160;SDS011;4615;51.340;8.288;2023-02-01T05:34:40;16.33;;;5.03;;
9160;SDS011;4615;51.340;8.288;2023-02-01T05:37:07;14.73;;;4.55;;
9160;SDS011;4615;51.340;8.288;2023-02-01T05:39:35;15.35;;;4.60;;
9160;SDS011;4615;51.340;8.288;2023-02-01T05:42:01;18.67;;;4.40;;
9160;SDS011;4615;51.340;8.288;2023-02-01T05:44:27;15.15;;;5.00;;
9160;SDS011;4615;51.340;8.288;2023-02-01T05:46:54;16.38;;;4.65;;
9160;SDS011;4615;51.340;8.288;2023-02-01T05:49:20;14.00;;;4.50;;
9160;SDS011;4615;51.340;8.288;2023-02-01T05:51:46;16.75;;;4.93;;
9160;SDS011;4615;51.340;8.288;2023-02-01T05:54:13;15.27;;;5.17;;
9160;SDS011;4615;51.340;8.288;2023-02-01T05:56:41;14.57;;;5.03;;
9160;SDS011;4615;51.340;8.288;2023-02-01T05:59:07;15.40;;;5.53;;
9160;SDS011;4615;51.340;8.288;2023-02-01T06:01:34;16.88;;;5.10;;
9160;SDS011;4615;51.340;8.288;2023-02-01T06:04:01;15.60;;;4.97;;
9160;SDS011;4615;51.340;8.288;2023-02-01T06:06:27;15.45;;;5.03;;
9160;SDS011;4615;51.340;8.288;2023-02-01T06:08:53;15.48;;;4.82;;
9160;SDS011;4615;51.340;8.288;2023-02-01T06:11:20;15.13;;;4.82;;
9160;SDS011;4615;51.340;8.288;2023-02-01T06:13:48;15.48;;;5.45;;
9160;SDS011;4615;51.340;8.288;2023-02-01T06:16:14;18.00;;;5.32;;
9160;SDS011;4615;51.340;8.288;2023-02-01T06:18:41;12.23;;;5.13;;
9160;SDS011;4615;51.340;8.288;2023-02-01T06:21:07;14.33;;;5.10;;
9160;SDS011;4615;51.340;8.288;2023-02-01T06:23:34;14.10;;;5.22;;
9160;SDS011;4615;51.340;8.288;2023-02-01T06:26:01;14.52;;;5.60;;
9160;SDS011;4615;51.340;8.288;2023-02-01T06:28:28;15.15;;;5.40;;
9160;SDS011;4615;51.340;8.288;2023-02-01T06:30:56;18.30;;;4.85;;
9160;SDS011;4615;51.340;8.288;2023-02-01T06:33:23;16.55;;;5.55;;
9160;SDS011;4615;51.340;8.288;2023-02-01T06:35:55;13.43;;;4.57;;
9160;SDS011;4615;51.340;8.288;2023-02-01T06:38:22;10.77;;;4.57;;
9160;SDS011;4615;51.340;8.288;2023-02-01T06:40:51;14.95;;;5.10;;
9160;SDS011;4615;51.340;8.288;2023-02-01T06:43:18;17.45;;;5.70;;
9160;SDS011;4615;51.340;8.288;2023-02-01T06:45:44;12.30;;;4.47;;
9160;SDS011;4615;51.340;8.288;2023-02-01T06:48:12;14.25;;;5.13;;
9160;SDS011;4615;51.340;8.288;2023-02-01T06:50:38;19.13;;;7.00;;
9160;SDS011;4615;51.340;8.288;2023-02-01T06:53:05;16.10;;;5.00;;
9160;SDS011;4615;51.340;8.288;2023-02-01T06:55:31;15.50;;;4.80;;
9160;SDS011;4615;51.340;8.288;2023-02-01T06:57:57;14.93;;;4.82;;
9160;SDS011;4615;51.340;8.288;2023-02-01T07:00:24;13.73;;;4.40;;
9160;SDS011;4615;51.340;8.288;2023-02-01T07:02:50;12.65;;;4.72;;
9160;SDS011;4615;51.340;8.288;2023-02-01T07:05:18;14.50;;;5.05;;
9160;SDS011;4615;51.340;8.288;2023-02-01T07:07:45;14.20;;;4.80;;
9160;SDS011;4615;51.340;8.288;2023-02-01T07:10:11;12.77;;;4.85;;
9160;SDS011;4615;51.340;8.288;2023-02-01T07:12:37;16.25;;;5.03;;
9160;SDS011;4615;51.340;8.288;2023-02-01T07:15:04;13.15;;;4.82;;
9160;SDS011;4615;51.340;8.288;2023-02-01T07:17:31;14.18;;;4.60;;
9160;SDS011;4615;51.340;8.288;2023-02-01T07:19:58;16.88;;;5.32;;
9160;SDS011;4615;51.340;8.288;2023-02-01T07:22:28;15.00;;;5.50;;
9160;SDS011;4615;51.340;8.288;2023-02-01T07:24:57;14.32;;;4.65;;
9160;SDS011;4615;51.340;8.288;2023-02-01T07:27:23;13.80;;;4.82;;
9160;SDS011;4615;51.340;8.288;2023-02-01T07:29:50;12.52;;;4.70;;
9160;SDS011;4615;51.340;8.288;2023-02-01T07:32:17;13.77;;;5.00;;
9160;SDS011;4615;51.340;8.288;2023-02-01T07:34:43;15.23;;;5.35;;
9160;SDS011;4615;51.340;8.288;2023-02-01T07:37:10;15.57;;;5.30;;
9160;SDS011;4615;51.340;8.288;2023-02-01T07:39:38;13.63;;;4.93;;
9160;SDS011;4615;51.340;8.288;2023-02-01T07:42:04;17.87;;;5.67;;
9160;SDS011;4615;51.340;8.288;2023-02-01T07:44:31;14.80;;;5.68;;
9160;SDS011;4615;51.340;8.288;2023-02-01T07:46:57;12.00;;;5.18;;
9160;SDS011;4615;51.340;8.288;2023-02-01T07:49:24;15.38;;;4.97;;
9160;SDS011;4615;51.340;8.288;2023-02-01T07:51:50;13.48;;;4.90;;
9160;SDS011;4615;51.340;8.288;2023-02-01T07:54:17;13.83;;;4.90;;
9160;SDS011;4615;51.340;8.288;2023-02-01T07:56:45;14.00;;;5.13;;
9160;SDS011;4615;51.340;8.288;2023-02-01T07:59:11;13.45;;;4.68;;
9160;SDS011;4615;51.340;8.288;2023-02-01T08:01:38;14.25;;;4.95;;
9160;SDS011;4615;51.340;8.288;2023-02-01T08:04:04;14.93;;;4.95;;
9160;SDS011;4615;51.340;8.288;2023-02-01T08:06:31;14.43;;;5.15;;
9160;SDS011;4615;51.340;8.288;2023-02-01T08:08:58;11.95;;;4.70;;
9160;SDS011;4615;51.340;8.288;2023-02-01T08:11:25;14.05;;;4.97;;
9160;SDS011;4615;51.340;8.288;2023-02-01T08:13:53;15.33;;;5.20;;
9160;SDS011;4615;51.340;8.288;2023-02-01T08:16:20;14.63;;;5.05;;
9160;SDS011;4615;51.340;8.288;2023-02-01T08:18:47;12.80;;;5.05;;
9160;SDS011;4615;51.340;8.288;2023-02-01T08:21:14;11.45;;;4.40;;
9160;SDS011;4615;51.340;8.288;2023-02-01T08:23:41;13.40;;;5.00;;
9160;SDS011;4615;51.340;8.288;2023-02-01T08:26:08;13.43;;;4.40;;
9160;SDS011;4615;51.340;8.288;2023-02-01T08:28:34;13.68;;;4.85;;
9160;SDS011;4615;51.340;8.288;2023-02-01T08:31:05;12.32;;;4.70;;
9160;SDS011;4615;51.340;8.288;2023-02-01T08:33:32;16.15;;;5.10;;
9160;SDS011;4615;51.340;8.288;2023-02-01T08:35:59;14.00;;;4.90;;
9160;SDS011;4615;51.340;8.288;2023-02-01T08:38:26;13.15;;;4.80;;
9160;SDS011;4615;51.340;8.288;2023-02-01T08:40:52;13.82;;;5.13;;
9160;SDS011;4615;51.340;8.288;2023-02-01T08:43:19;13.00;;;5.13;;
9160;SDS011;4615;51.340;8.288;2023-02-01T08:45:45;16.42;;;5.78;;
9160;SDS011;4615;51.340;8.288;2023-02-01T08:48:13;17.45;;;5.25;;
9160;SDS011;4615;51.340;8.288;2023-02-01T08:50:39;16.50;;;5.40;;
9160;SDS011;4615;51.340;8.288;2023-02-01T08:53:05;14.73;;;5.03;;
9160;SDS011;4615;51.340;8.288;2023-02-01T08:55:32;12.55;;;5.35;;
9160;SDS011;4615;51.340;8.288;2023-02-01T08:57:58;14.55;;;5.35;;
9160;SDS011;4615;51.340;8.288;2023-02-01T09:00:25;12.77;;;4.90;;
9160;SDS011;4615;51.340;8.288;2023-02-01T09:02:51;14.35;;;4.95;;
9160;SDS011;4615;51.340;8.288;2023-02-01T09:05:19;13.02;;;4.85;;
9160;SDS011;4615;51.340;8.288;2023-02-01T09:07:47;12.13;;;4.90;;
9160;SDS011;4615;51.340;8.288;2023-02-01T09:10:13;10.20;;;4.47;;
9160;SDS011;4615;51.340;8.288;2023-02-01T09:12:40;15.23;;;5.50;;
9160;SDS011;4615;51.340;8.288;2023-02-01T09:15:06;14.27;;;5.40;;
9160;SDS011;4615;51.340;8.288;2023-02-01T09:17:33;13.55;;;5.53;;
9160;SDS011;4615;51.340;8.288;2023-02-01T09:19:59;16.97;;;5.90;;
9160;SDS011;4615;51.340;8.288;2023-02-01T09:22:27;14.13;;;5.85;;
9160;SDS011;4615;51.340;8.288;2023-02-01T09:24:54;13.73;;;5.55;;
9160;SDS011;4615;51.340;8.288;2023-02-01T09:27:20;12.05;;;5.20;;
9160;SDS011;4615;51.340;8.288;2023-02-01T09:29:47;16.00;;;5.72;;
9160;SDS011;4615;51.340;8.288;2023-02-01T09:32:17;13.63;;;5.15;;
9160;SDS011;4615;51.340;8.288;2023-02-01T09:34:43;16.17;;;5.30;;
9160;SDS011;4615;51.340;8.288;2023-02-01T09:37:10;14.43;;;5.55;;
9160;SDS011;4615;51.340;8.288;2023-02-01T09:39:37;14.50;;;5.43;;
9160;SDS011;4615;51.340;8.288;2023-02-01T09:42:07;12.18;;;5.15;;
9160;SDS011;4615;51.340;8.288;2023-02-01T09:44:44;12.60;;;4.95;;
9160;SDS011;4615;51.340;8.288;2023-02-01T09:47:15;13.60;;;4.82;;
9160;SDS011;4615;51.340;8.288;2023-02-01T09:49:45;14.37;;;5.07;;
9160;SDS011;4615;51.340;8.288;2023-02-01T09:52:12;11.73;;;4.63;;
9160;SDS011;4615;51.340;8.288;2023-02-01T09:54:42;12.35;;;4.68;;
9160;SDS011;4615;51.340;8.288;2023-02-01T09:57:11;14.88;;;4.63;;
9160;SDS011;4615;51.340;8.288;2023-02-01T09:59:39;13.48;;;5.20;;
9160;SDS011;4615;51.340;8.288;2023-02-01T10:02:10;13.80;;;5.18;;
9160;SDS011;4615;51.340;8.288;2023-02-01T10:04:37;12.98;;;5.03;;
9160;SDS011;4615;51.340;8.288;2023-02-01T10:07:10;13.23;;;4.90;;
9160;SDS011;4615;51.340;8.288;2023-02-01T10:09:52;14.60;;;5.32;;
9160;SDS011;4615;51.340;8.288;2023-02-01T10:15:06;12.35;;;4.80;;
9160;SDS011;4615;51.340;8.288;2023-02-01T10:17:44;14.63;;;5.00;;
9160;SDS011;4615;51.340;8.288;2023-02-01T10:20:14;14.18;;;4.75;;
9160;SDS011;4615;51.340;8.288;2023-02-01T10:22:43;13.15;;;4.78;;
9160;SDS011;4615;51.340;8.288;2023-02-01T10:25:14;15.20;;;5.80;;
9160;SDS011;4615;51.340;8.288;2023-02-01T10:27:44;14.52;;;5.40;;
9160;SDS011;4615;51.340;8.288;2023-02-01T10:30:16;12.57;;;5.05;;
9160;SDS011;4615;51.340;8.288;2023-02-01T10:32:44;14.77;;;5.45;;
9160;SDS011;4615;51.340;8.288;2023-02-01T10:35:12;14.77;;;5.25;;
9160;SDS011;4615;51.340;8.288;2023-02-01T10:37:39;15.98;;;5.20;;
9160;SDS011;4615;51.340;8.288;2023-02-01T10:40:11;12.50;;;5.10;;
9160;SDS011;4615;51.340;8.288;2023-02-01T10:42:40;13.73;;;5.05;;
9160;SDS011;4615;51.340;8.288;2023-02-01T10:45:11;14.27;;;5.25;;
9160;SDS011;4615;51.340;8.288;2023-02-01T10:47:38;14.73;;;5.23;;
9160;SDS011;4615;51.340;8.288;2023-02-01T10:50:08;14.13;;;5.35;;
9160;SDS011;4615;51.340;8.288;2023-02-01T10:52:40;16.00;;;5.72;;
9160;SDS011;4615;51.340;8.288;2023-02-01T10:58:15;17.02;;;5.82;;
9160;SDS011;4615;51.340;8.288;2023-02-01T11:00:46;13.32;;;5.85;;
9160;SDS011;4615;51.340;8.288;2023-02-01T11:03:20;15.77;;;5.88;;
9160;SDS011;4615;51.340;8.288;2023-02-01T11:05:47;13.30;;;5.47;;
9160;SDS011;4615;51.340;8.288;2023-02-01T11:08:14;14.60;;;5.30;;
9160;SDS011;4615;51.340;8.288;2023-02-01T11:10:42;13.40;;;5.38;;
9160;SDS011;4615;51.340;8.288;2023-02-01T11:13:11;13.33;;;5.43;;
9160;SDS011;4615;51.340;8.288;2023-02-01T11:15:43;11.30;;;5.20;;
9160;SDS011;4615;51.340;8.288;2023-02-01T11:18:16;13.15;;;5.10;;
9160;SDS011;4615;51.340;8.288;2023-02-01T11:20:42;16.00;;;5.90;;
9160;SDS011;4615;51.340;8.288;2023-02-01T11:23:13;13.38;;;5.50;;
9160;SDS011;4615;51.340;8.288;2023-02-01T11:25:46;16.35;;;5.20;;
9160;SDS011;4615;51.340;8.288;2023-02-01T11:28:13;14.13;;;5.07;;
9160;SDS011;4615;51.340;8.288;2023-02-01T11:30:41;15.02;;;4.97;;
9160;SDS011;4615;51.340;8.288;2023-02-01T11:33:13;12.02;;;5.18;;
9160;SDS011;4615;51.340;8.288;2023-02-01T11:35:41;12.27;;;4.70;;
9160;SDS011;4615;51.340;8.288;2023-02-01T11:38:11;14.30;;;4.93;;
9160;SDS011;4615;51.340;8.288;2023-02-01T11:40:39;15.45;;;5.13;;
9160;SDS011;4615;51.340;8.288;2023-02-01T11:43:07;14.82;;;5.13;;
9160;SDS011;4615;51.340;8.288;2023-02-01T11:45:35;13.02;;;4.97;;
9160;SDS011;4615;51.340;8.288;2023-02-01T11:48:07;13.40;;;4.93;;
9160;SDS011;4615;51.340;8.288;2023-02-01T11:50:38;11.33;;;4.33;;
9160;SDS011;4615;51.340;8.288;2023-02-01T11:56:01;12.52;;;5.00;;
9160;SDS011;4615;51.340;8.288;2023-02-01T12:04:09;14.60;;;4.22;;
9160;SDS011;4615;51.340;8.288;2023-02-01T12:06:44;14.68;;;5.13;;
9160;SDS011;4615;51.340;8.288;2023-02-01T12:09:29;13.57;;;5.20;;
9160;SDS011;4615;51.340;8.288;2023-02-01T12:12:00;14.43;;;5.85;;
9160;SDS011;4615;51.340;8.288;2023-02-01T12:14:43;17.05;;;5.43;;
9160;SDS011;4615;51.340;8.288;2023-02-01T12:17:19;16.13;;;5.70;;
9160;SDS011;4615;51.340;8.288;2023-02-01T12:19:55;12.90;;;5.37;;
9160;SDS011;4615;51.340;8.288;2023-02-01T12:22:28;13.27;;;5.28;;
9160;SDS011;4615;51.340;8.288;2023-02-01T12:25:00;12.67;;;4.97;;
9160;SDS011;4615;51.340;8.288;2023-02-01T12:27:41;15.65;;;5.38;;
9160;SDS011;4615;51.340;8.288;2023-02-01T12:30:18;13.83;;;5.50;;
9160;SDS011;4615;51.340;8.288;2023-02-01T12:32:50;14.65;;;5.18;;
9160;SDS011;4615;51.340;8.288;2023-02-01T12:35:33;13.18;;;5.00;;
9160;SDS011;4615;51.340;8.288;2023-02-01T12:38:23;15.20;;;5.47;;
9160;SDS011;4615;51.340;8.288;2023-02-01T12:40:56;15.88;;;5.00;;
9160;SDS011;4615;51.340;8.288;2023-02-01T12:43:25;15.40;;;5.55;;
9160;SDS011;4615;51.340;8.288;2023-02-01T12:45:56;13.07;;;5.13;;
9160;SDS011;4615;51.340;8.288;2023-02-01T12:48:25;14.32;;;5.25;;
9160;SDS011;4615;51.340;8.288;2023-02-01T12:50:53;16.23;;;5.15;;
9160;SDS011;4615;51.340;8.288;2023-02-01T12:53:23;15.75;;;5.00;;
9160;SDS011;4615;51.340;8.288;2023-02-01T12:55:51;14.40;;;4.93;;
9160;SDS011;4615;51.340;8.288;2023-02-01T12:58:20;13.05;;;4.65;;
9160;SDS011;4615;51.340;8.288;2023-02-01T13:00:49;11.80;;;4.60;;
9160;SDS011;4615;51.340;8.288;2023-02-01T13:03:18;12.83;;;4.80;;
9160;SDS011;4615;51.340;8.288;2023-02-01T13:05:50;12.47;;;4.27;;
9160;SDS011;4615;51.340;8.288;2023-02-01T13:08:18;13.57;;;4.88;;
9160;SDS011;4615;51.340;8.288;2023-02-01T13:10:48;9.85;;;4.35;;
9160;SDS011;4615;51.340;8.288;2023-02-01T13:13:19;10.13;;;4.72;;
9160;SDS011;4615;51.340;8.288;2023-02-01T13:15:54;12.10;;;4.70;;
9160;SDS011;4615;51.340;8.288;2023-02-01T13:18:22;13.93;;;4.95;;
9160;SDS011;4615;51.340;8.288;2023-02-01T13:20:53;11.73;;;4.43;;
9160;SDS011;4615;51.340;8.288;2023-02-01T13:23:23;10.23;;;4.70;;
9160;SDS011;4615;51.340;8.288;2023-02-01T13:25:52;11.70;;;4.70;;
9160;SDS011;4615;51.340;8.288;2023-02-01T13:28:20;12.27;;;4.82;;
9160;SDS011;4615;51.340;8.288;2023-02-01T13:30:55;13.35;;;4.75;;
9160;SDS011;4615;51.340;8.288;2023-02-01T13:33:32;14.17;;;5.67;;
9160;SDS011;4615;51.340;8.288;2023-02-01T13:36:09;17.35;;;5.63;;
9160;SDS011;4615;51.340;8.288;2023-02-01T13:41:28;13.97;;;4.80;;
9160;SDS011;4615;51.340;8.288;2023-02-01T13:43:57;14.20;;;5.53;;
9160;SDS011;4615;51.340;8.288;2023-02-01T13:46:25;13.32;;;5.53;;
9160;SDS011;4615;51.340;8.288;2023-02-01T13:48:52;15.15;;;5.20;;
9160;SDS011;4615;51.340;8.288;2023-02-01T13:51:29;13.85;;;4.65;;
9160;SDS011;4615;51.340;8.288;2023-02-01T13:53:57;11.88;;;5.10;;
9160;SDS011;4615;51.340;8.288;2023-02-01T13:56:24;12.07;;;4.80;;
9160;SDS011;4615;51.340;8.288;2023-02-01T13:58:52;13.73;;;4.82;;
9160;SDS011;4615;51.340;8.288;2023-02-01T14:01:32;13.90;;;5.40;;
9160;SDS011;4615;51.340;8.288;2023-02-01T14:04:00;12.57;;;4.93;;
9160;SDS011;4615;51.340;8.288;2023-02-01T14:06:38;12.35;;;5.30;;
9160;SDS011;4615;51.340;8.288;2023-02-01T14:09:16;11.23;;;5.43;;
9160;SDS011;4615;51.340;8.288;2023-02-01T14:11:44;14.00;;;5.32;;
9160;SDS011;4615;51.340;8.288;2023-02-01T14:22:48;12.38;;;5.13;;
9160;SDS011;4615;51.340;8.288;2023-02-01T14:25:16;12.67;;;5.47;;
9160;SDS011;4615;51.340;8.288;2023-02-01T14:27:43;10.77;;;5.00;;
9160;SDS011;4615;51.340;8.288;2023-02-01T14:30:11;10.57;;;5.65;;
9160;SDS011;4615;51.340;8.288;2023-02-01T14:32:41;11.45;;;5.78;;
9160;SDS011;4615;51.340;8.288;2023-02-01T14:35:16;12.02;;;5.55;;
9160;SDS011;4615;51.340;8.288;2023-02-01T14:37:43;13.05;;;5.35;;
9160;SDS011;4615;51.340;8.288;2023-02-01T14:40:16;10.52;;;5.13;;
9160;SDS011;4615;51.340;8.288;2023-02-01T14:42:43;12.27;;;5.40;;
9160;SDS011;4615;51.340;8.288;2023-02-01T14:47:55;11.88;;;5.88;;
9160;SDS011;4615;51.340;8.288;2023-02-01T14:50:42;12.73;;;5.80;;
9160;SDS011;4615;51.340;8.288;2023-02-01T14:53:19;11.48;;;5.72;;
9160;SDS011;4615;51.340;8.288;2023-02-01T14:55:50;14.98;;;6.68;;
9160;SDS011;4615;51.340;8.288;2023-02-01T14:58:25;14.48;;;6.30;;
9160;SDS011;4615;51.340;8.288;2023-02-01T15:00:55;13.73;;;6.50;;
9160;SDS011;4615;51.340;8.288;2023-02-01T15:03:25;12.20;;;6.00;;
9160;SDS011;4615;51.340;8.288;2023-02-01T15:05:56;13.45;;;6.57;;
9160;SDS011;4615;51.340;8.288;2023-02-01T15:08:24;13.07;;;5.63;;
9160;SDS011;4615;51.340;8.288;2023-02-01T15:10:52;13.60;;;6.00;;
9160;SDS011;4615;51.340;8.288;2023-02-01T15:13:20;14.07;;;6.20;;
9160;SDS011;4615;51.340;8.288;2023-02-01T15:15:59;13.45;;;5.70;;
9160;SDS011;4615;51.340;8.288;2023-02-01T15:18:26;15.30;;;6.47;;
9160;SDS011;4615;51.340;8.288;2023-02-01T15:20:56;12.10;;;5.72;;
9160;SDS011;4615;51.340;8.288;2023-02-01T15:23:22;10.60;;;5.40;;
9160;SDS011;4615;51.340;8.288;2023-02-01T15:25:49;12.68;;;6.07;;
9160;SDS011;4615;51.340;8.288;2023-02-01T15:28:17;12.48;;;5.63;;
9160;SDS011;4615;51.340;8.288;2023-02-01T15:30:51;14.30;;;5.93;;
9160;SDS011;4615;51.340;8.288;2023-02-01T15:33:18;16.03;;;6.53;;
9160;SDS011;4615;51.340;8.288;2023-02-01T15:35:46;16.27;;;6.25;;
9160;SDS011;4615;51.340;8.288;2023-02-01T15:38:30;14.60;;;6.40;;
9160;SDS011;4615;51.340;8.288;2023-02-01T15:40:57;14.57;;;6.03;;
9160;SDS011;4615;51.340;8.288;2023-02-01T15:43:26;12.90;;;5.90;;